sensor_id;sensor_type;location;lat;lon;timestamp;temperature;humidity
38902;DHT22;24661;53.566;9.910;2022-07-29T00:00:05;14.10;99.90
38902;DHT22;24661;53.566;9.910;2022-07-29T00:02:31;14.00;99.90
38902;DHT22;24661;53.566;9.910;2022-07-29T00:04:57;14.00;99.90
38902;DHT22;24661;53.566;9.910;2022-07-29T00:07:23;14.00;99.90
38902;DHT22;24661;53.566;9.910;2022-07-29T00:09:48;13.90;99.90
38902;DHT22;24661;53.566;9.910;2022-07-29T00:12:14;13.90;99.90
38902;DHT22;24661;53.566;9.910;2022-07-29T00:14:40;13.90;99.90
38902;DHT22;24661;53.566;9.910;2022-07-29T00:17:05;13.90;99.90
38902;DHT22;24661;53.566;9.910;2022-07-29T00:19:31;13.80;99.90
38902;DHT22;24661;53.566;9.910;2022-07-29T00:21:56;13.90;99.90
38902;DHT22;24661;53.566;9.910;2022-07-29T00:24:22;13.90;99.90
38902;DHT22;24661;53.566;9.910;2022-07-29T00:26:47;13.90;99.90
38902;DHT22;24661;53.566;9.910;2022-07-29T00:29:13;13.80;99.90
38902;DHT22;24661;53.566;9.910;2022-07-29T00:31:39;13.80;99.90
38902;DHT22;24661;53.566;9.910;2022-07-29T00:34:04;13.70;99.90
38902;DHT22;24661;53.566;9.910;2022-07-29T00:36:31;13.70;99.90
38902;DHT22;24661;53.566;9.910;2022-07-29T00:38:57;13.70;99.90
38902;DHT22;24661;53.566;9.910;2022-07-29T00:41:22;13.60;99.90
38902;DHT22;24661;53.566;9.910;2022-07-29T00:43:48;13.60;99.90
38902;DHT22;24661;53.566;9.910;2022-07-29T00:46:14;13.50;99.90
38902;DHT22;24661;53.566;9.910;2022-07-29T00:48:39;13.50;99.90
38902;DHT22;24661;53.566;9.910;2022-07-29T00:51:06;13.50;99.90
38902;DHT22;24661;53.566;9.910;2022-07-29T00:53:33;13.40;99.90
38902;DHT22;24661;53.566;9.910;2022-07-29T00:56:00;13.40;99.90
38902;DHT22;24661;53.566;9.910;2022-07-29T00:58:26;13.30;99.90
38902;DHT22;24661;53.566;9.910;2022-07-29T01:00:52;13.30;99.90
38902;DHT22;24661;53.566;9.910;2022-07-29T01:03:18;13.30;99.90
38902;DHT22;24661;53.566;9.910;2022-07-29T01:05:44;13.30;99.90
38902;DHT22;24661;53.566;9.910;2022-07-29T01:08:12;13.40;99.90
38902;DHT22;24661;53.566;9.910;2022-07-29T01:10:39;13.30;99.90
38902;DHT22;24661;53.566;9.910;2022-07-29T01:13:06;13.30;99.90
38902;DHT22;24661;53.566;9.910;2022-07-29T01:15:34;13.30;99.90
38902;DHT22;24661;53.566;9.910;2022-07-29T01:18:16;13.30;99.90
38902;DHT22;24661;53.566;9.910;2022-07-29T01:20:59;13.30;99.90
38902;DHT22;24661;53.566;9.910;2022-07-29T01:23:46;13.40;99.90
38902;DHT22;24661;53.566;9.910;2022-07-29T01:26:33;13.40;99.90
38902;DHT22;24661;53.566;9.910;2022-07-29T01:29:05;13.40;99.90
38902;DHT22;24661;53.566;9.910;2022-07-29T01:31:41;13.40;99.90
38902;DHT22;24661;53.566;9.910;2022-07-29T01:34:11;13.50;99.90
38902;DHT22;24661;53.566;9.910;2022-07-29T01:36:52;13.50;99.90
38902;DHT22;24661;53.566;9.910;2022-07-29T01:39:32;13.50;99.90
38902;DHT22;24661;53.566;9.910;2022-07-29T01:42:32;12.10;99.90
38902;DHT22;24661;53.566;9.910;2022-07-29T01:50:32;13.60;99.90
38902;DHT22;24661;53.566;9.910;2022-07-29T01:53:01;13.60;99.90
38902;DHT22;24661;53.566;9.910;2022-07-29T01:55:31;13.60;99.90
38902;DHT22;24661;53.566;9.910;2022-07-29T01:57:58;13.70;99.90
38902;DHT22;24661;53.566;9.910;2022-07-29T02:00:25;13.70;99.90
38902;DHT22;24661;53.566;9.910;2022-07-29T02:02:53;13.70;99.90
38902;DHT22;24661;53.566;9.910;2022-07-29T02:05:21;13.70;99.90
38902;DHT22;24661;53.566;9.910;2022-07-29T02:07:49;13.80;99.90
38902;DHT22;24661;53.566;9.910;2022-07-29T02:10:18;13.70;99.90
38902;DHT22;24661;53.566;9.910;2022-07-29T02:12:45;13.80;99.90
38902;DHT22;24661;53.566;9.910;2022-07-29T02:15:12;13.70;99.90
38902;DHT22;24661;53.566;9.910;2022-07-29T02:18:01;13.70;99.90
38902;DHT22;24661;53.566;9.910;2022-07-29T02:20:27;13.80;99.90
38902;DHT22;24661;53.566;9.910;2022-07-29T02:22:55;13.80;99.90
38902;DHT22;24661;53.566;9.910;2022-07-29T02:25:23;13.80;99.90
38902;DHT22;24661;53.566;9.910;2022-07-29T02:27:51;13.80;99.90
38902;DHT22;24661;53.566;9.910;2022-07-29T02:30:18;13.80;99.90
38902;DHT22;24661;53.566;9.910;2022-07-29T02:32:45;13.80;99.90
38902;DHT22;24661;53.566;9.910;2022-07-29T02:35:14;13.80;99.90
38902;DHT22;24661;53.566;9.910;2022-07-29T02:37:43;13.90;99.90
38902;DHT22;24661;53.566;9.910;2022-07-29T02:40:11;13.90;99.90
38902;DHT22;24661;53.566;9.910;2022-07-29T02:42:41;13.90;99.90
38902;DHT22;24661;53.566;9.910;2022-07-29T02:45:08;13.90;99.90
38902;DHT22;24661;53.566;9.910;2022-07-29T02:47:37;13.90;99.90
38902;DHT22;24661;53.566;9.910;2022-07-29T02:50:22;14.00;99.90
38902;DHT22;24661;53.566;9.910;2022-07-29T02:52:57;14.00;99.90
38902;DHT22;24661;53.566;9.910;2022-07-29T02:55:29;14.00;99.90
38902;DHT22;24661;53.566;9.910;2022-07-29T02:58:00;14.10;99.90
38902;DHT22;24661;53.566;9.910;2022-07-29T03:00:31;14.10;99.90
38902;DHT22;24661;53.566;9.910;2022-07-29T03:03:03;14.00;99.90
38902;DHT22;24661;53.566;9.910;2022-07-29T03:05:29;14.00;99.90
38902;DHT22;24661;53.566;9.910;2022-07-29T03:07:58;14.10;99.90
38902;DHT22;24661;53.566;9.910;2022-07-29T03:10:26;14.00;99.90
38902;DHT22;24661;53.566;9.910;2022-07-29T03:12:53;14.00;99.90
38902;DHT22;24661;53.566;9.910;2022-07-29T03:15:20;14.00;99.90
38902;DHT22;24661;53.566;9.910;2022-07-29T03:17:46;14.00;99.90
38902;DHT22;24661;53.566;9.910;2022-07-29T03:20:12;13.90;99.90
38902;DHT22;24661;53.566;9.910;2022-07-29T03:22:40;14.00;99.90
38902;DHT22;24661;53.566;9.910;2022-07-29T03:25:15;14.00;99.90
38902;DHT22;24661;53.566;9.910;2022-07-29T03:27:41;14.00;99.90
38902;DHT22;24661;53.566;9.910;2022-07-29T03:30:08;14.00;99.90
38902;DHT22;24661;53.566;9.910;2022-07-29T03:32:35;14.10;99.90
38902;DHT22;24661;53.566;9.910;2022-07-29T03:35:01;14.10;99.90
38902;DHT22;24661;53.566;9.910;2022-07-29T03:37:27;14.10;99.90
38902;DHT22;24661;53.566;9.910;2022-07-29T03:39:55;14.10;99.90
38902;DHT22;24661;53.566;9.910;2022-07-29T03:42:24;14.10;99.90
38902;DHT22;24661;53.566;9.910;2022-07-29T03:44:52;14.10;99.90
38902;DHT22;24661;53.566;9.910;2022-07-29T03:47:21;14.10;99.90
38902;DHT22;24661;53.566;9.910;2022-07-29T03:49:50;14.20;99.90
38902;DHT22;24661;53.566;9.910;2022-07-29T03:52:17;14.10;99.90
38902;DHT22;24661;53.566;9.910;2022-07-29T03:54:43;14.20;99.90
38902;DHT22;24661;53.566;9.910;2022-07-29T03:57:10;14.20;99.90
38902;DHT22;24661;53.566;9.910;2022-07-29T03:59:37;14.20;99.90
38902;DHT22;24661;53.566;9.910;2022-07-29T04:02:04;14.20;99.90
38902;DHT22;24661;53.566;9.910;2022-07-29T04:04:37;14.20;99.90
38902;DHT22;24661;53.566;9.910;2022-07-29T04:07:03;14.30;99.90
38902;DHT22;24661;53.566;9.910;2022-07-29T04:09:29;14.30;99.90
38902;DHT22;24661;53.566;9.910;2022-07-29T04:11:55;14.30;99.90
38902;DHT22;24661;53.566;9.910;2022-07-29T04:14:21;14.30;99.90
38902;DHT22;24661;53.566;9.910;2022-07-29T04:16:47;14.30;99.90
38902;DHT22;24661;53.566;9.910;2022-07-29T04:19:12;14.30;99.90
38902;DHT22;24661;53.566;9.910;2022-07-29T04:21:39;14.30;99.90
38902;DHT22;24661;53.566;9.910;2022-07-29T04:24:06;14.30;99.90
38902;DHT22;24661;53.566;9.910;2022-07-29T04:26:33;14.40;99.90
38902;DHT22;24661;53.566;9.910;2022-07-29T04:28:58;14.40;99.90
38902;DHT22;24661;53.566;9.910;2022-07-29T04:31:24;14.40;99.90
38902;DHT22;24661;53.566;9.910;2022-07-29T04:33:50;14.50;99.90
38902;DHT22;24661;53.566;9.910;2022-07-29T04:36:15;14.50;99.90
38902;DHT22;24661;53.566;9.910;2022-07-29T04:38:41;14.50;99.90
38902;DHT22;24661;53.566;9.910;2022-07-29T04:41:06;14.50;99.90
38902;DHT22;24661;53.566;9.910;2022-07-29T04:43:34;14.60;99.90
38902;DHT22;24661;53.566;9.910;2022-07-29T04:46:00;14.70;99.90
38902;DHT22;24661;53.566;9.910;2022-07-29T04:48:26;14.70;99.90
38902;DHT22;24661;53.566;9.910;2022-07-29T04:50:52;14.70;99.90
38902;DHT22;24661;53.566;9.910;2022-07-29T04:53:17;14.70;99.90
38902;DHT22;24661;53.566;9.910;2022-07-29T04:55:43;14.80;99.90
38902;DHT22;24661;53.566;9.910;2022-07-29T04:58:09;14.70;99.90
38902;DHT22;24661;53.566;9.910;2022-07-29T05:00:34;14.80;99.90
38902;DHT22;24661;53.566;9.910;2022-07-29T05:03:00;14.90;99.90
38902;DHT22;24661;53.566;9.910;2022-07-29T05:05:26;14.90;99.90
38902;DHT22;24661;53.566;9.910;2022-07-29T05:07:52;14.90;99.90
38902;DHT22;24661;53.566;9.910;2022-07-29T05:10:18;14.90;99.90
38902;DHT22;24661;53.566;9.910;2022-07-29T05:12:44;14.90;99.90
38902;DHT22;24661;53.566;9.910;2022-07-29T05:15:09;14.90;99.90
38902;DHT22;24661;53.566;9.910;2022-07-29T05:17:35;15.00;99.90
38902;DHT22;24661;53.566;9.910;2022-07-29T05:20:01;15.10;99.90
38902;DHT22;24661;53.566;9.910;2022-07-29T05:22:26;15.20;99.90
38902;DHT22;24661;53.566;9.910;2022-07-29T05:24:52;15.20;99.90
38902;DHT22;24661;53.566;9.910;2022-07-29T05:27:18;15.30;99.90
38902;DHT22;24661;53.566;9.910;2022-07-29T05:29:43;15.30;99.90
38902;DHT22;24661;53.566;9.910;2022-07-29T05:32:09;15.40;99.90
38902;DHT22;24661;53.566;9.910;2022-07-29T05:34:35;15.50;99.90
38902;DHT22;24661;53.566;9.910;2022-07-29T05:37:01;15.60;99.90
38902;DHT22;24661;53.566;9.910;2022-07-29T05:39:26;15.70;99.90
38902;DHT22;24661;53.566;9.910;2022-07-29T05:41:52;15.70;99.90
38902;DHT22;24661;53.566;9.910;2022-07-29T05:44:17;15.70;99.90
38902;DHT22;24661;53.566;9.910;2022-07-29T05:46:43;15.70;99.90
38902;DHT22;24661;53.566;9.910;2022-07-29T05:49:09;15.70;99.90
38902;DHT22;24661;53.566;9.910;2022-07-29T05:51:35;15.80;99.90
38902;DHT22;24661;53.566;9.910;2022-07-29T05:54:01;15.80;99.90
38902;DHT22;24661;53.566;9.910;2022-07-29T05:56:27;15.80;99.90
38902;DHT22;24661;53.566;9.910;2022-07-29T05:58:53;15.80;99.90
38902;DHT22;24661;53.566;9.910;2022-07-29T06:01:18;15.90;99.90
38902;DHT22;24661;53.566;9.910;2022-07-29T06:03:44;16.00;99.90
38902;DHT22;24661;53.566;9.910;2022-07-29T06:06:10;16.20;99.90
38902;DHT22;24661;53.566;9.910;2022-07-29T06:08:36;16.30;99.90
38902;DHT22;24661;53.566;9.910;2022-07-29T06:11:03;16.50;99.90
38902;DHT22;24661;53.566;9.910;2022-07-29T06:13:29;16.40;99.90
38902;DHT22;24661;53.566;9.910;2022-07-29T06:15:54;15.50;99.90
38902;DHT22;24661;53.566;9.910;2022-07-29T06:18:21;16.60;99.90
38902;DHT22;24661;53.566;9.910;2022-07-29T06:20:50;16.70;99.90
38902;DHT22;24661;53.566;9.910;2022-07-29T06:23:16;16.80;99.90
38902;DHT22;24661;53.566;9.910;2022-07-29T06:25:43;16.90;99.90
38902;DHT22;24661;53.566;9.910;2022-07-29T06:28:08;17.00;99.90
38902;DHT22;24661;53.566;9.910;2022-07-29T06:30:34;17.10;99.90
38902;DHT22;24661;53.566;9.910;2022-07-29T06:33:00;17.10;99.90
38902;DHT22;24661;53.566;9.910;2022-07-29T06:35:27;17.00;99.90
38902;DHT22;24661;53.566;9.910;2022-07-29T06:37:52;17.20;99.90
38902;DHT22;24661;53.566;9.910;2022-07-29T06:40:18;17.20;99.90
38902;DHT22;24661;53.566;9.910;2022-07-29T06:43:02;17.30;99.90
38902;DHT22;24661;53.566;9.910;2022-07-29T06:45:28;17.30;99.90
38902;DHT22;24661;53.566;9.910;2022-07-29T06:47:54;17.40;99.90
38902;DHT22;24661;53.566;9.910;2022-07-29T06:50:20;17.50;99.90
38902;DHT22;24661;53.566;9.910;2022-07-29T06:52:47;17.50;99.90
38902;DHT22;24661;53.566;9.910;2022-07-29T06:55:13;17.50;99.90
38902;DHT22;24661;53.566;9.910;2022-07-29T06:57:39;17.60;99.90
38902;DHT22;24661;53.566;9.910;2022-07-29T07:00:06;17.70;99.90
38902;DHT22;24661;53.566;9.910;2022-07-29T07:02:32;17.90;99.90
38902;DHT22;24661;53.566;9.910;2022-07-29T07:04:57;18.10;99.90
38902;DHT22;24661;53.566;9.910;2022-07-29T07:07:24;18.10;99.90
38902;DHT22;24661;53.566;9.910;2022-07-29T07:09:50;18.20;99.90
38902;DHT22;24661;53.566;9.910;2022-07-29T07:12:15;18.20;99.90
38902;DHT22;24661;53.566;9.910;2022-07-29T07:14:41;18.30;99.90
38902;DHT22;24661;53.566;9.910;2022-07-29T07:17:07;18.30;99.90
38902;DHT22;24661;53.566;9.910;2022-07-29T07:19:33;18.40;99.90
38902;DHT22;24661;53.566;9.910;2022-07-29T07:21:58;18.40;99.90
38902;DHT22;24661;53.566;9.910;2022-07-29T07:24:24;18.50;99.90
38902;DHT22;24661;53.566;9.910;2022-07-29T07:26:50;18.50;99.90
38902;DHT22;24661;53.566;9.910;2022-07-29T07:29:16;18.50;99.90
38902;DHT22;24661;53.566;9.910;2022-07-29T07:31:42;18.50;99.90
38902;DHT22;24661;53.566;9.910;2022-07-29T07:34:07;18.50;99.90
38902;DHT22;24661;53.566;9.910;2022-07-29T07:36:33;18.50;99.90
38902;DHT22;24661;53.566;9.910;2022-07-29T07:38:59;18.50;99.90
38902;DHT22;24661;53.566;9.910;2022-07-29T07:41:24;18.50;99.90
38902;DHT22;24661;53.566;9.910;2022-07-29T07:43:50;18.50;99.90
38902;DHT22;24661;53.566;9.910;2022-07-29T07:46:16;18.50;99.90
38902;DHT22;24661;53.566;9.910;2022-07-29T07:48:41;18.50;99.90
38902;DHT22;24661;53.566;9.910;2022-07-29T07:51:07;18.60;99.90
38902;DHT22;24661;53.566;9.910;2022-07-29T07:53:33;18.60;99.90
38902;DHT22;24661;53.566;9.910;2022-07-29T07:55:59;18.70;99.90
38902;DHT22;24661;53.566;9.910;2022-07-29T07:58:26;18.80;99.90
38902;DHT22;24661;53.566;9.910;2022-07-29T08:00:52;18.90;99.90
38902;DHT22;24661;53.566;9.910;2022-07-29T08:03:17;19.00;99.90
38902;DHT22;24661;53.566;9.910;2022-07-29T08:05:43;19.20;99.90
38902;DHT22;24661;53.566;9.910;2022-07-29T08:08:09;19.50;99.90
38902;DHT22;24661;53.566;9.910;2022-07-29T08:10:35;19.80;99.90
38902;DHT22;24661;53.566;9.910;2022-07-29T08:13:20;19.80;99.90
38902;DHT22;24661;53.566;9.910;2022-07-29T08:15:46;20.10;99.90
38902;DHT22;24661;53.566;9.910;2022-07-29T08:18:14;20.20;99.90
38902;DHT22;24661;53.566;9.910;2022-07-29T08:20:40;20.40;99.90
38902;DHT22;24661;53.566;9.910;2022-07-29T08:23:07;20.40;99.90
38902;DHT22;24661;53.566;9.910;2022-07-29T08:25:36;20.50;99.90
38902;DHT22;24661;53.566;9.910;2022-07-29T08:28:04;20.50;99.90
38902;DHT22;24661;53.566;9.910;2022-07-29T08:30:30;20.50;99.90
38902;DHT22;24661;53.566;9.910;2022-07-29T08:32:57;20.50;99.90
38902;DHT22;24661;53.566;9.910;2022-07-29T08:35:24;20.60;99.90
38902;DHT22;24661;53.566;9.910;2022-07-29T08:37:50;20.60;99.90
38902;DHT22;24661;53.566;9.910;2022-07-29T08:40:16;20.70;99.90
38902;DHT22;24661;53.566;9.910;2022-07-29T08:42:42;20.80;99.90
38902;DHT22;24661;53.566;9.910;2022-07-29T08:45:08;20.90;99.90
38902;DHT22;24661;53.566;9.910;2022-07-29T08:47:33;21.00;99.90
38902;DHT22;24661;53.566;9.910;2022-07-29T08:50:02;21.00;99.90
38902;DHT22;24661;53.566;9.910;2022-07-29T08:52:28;21.00;99.90
38902;DHT22;24661;53.566;9.910;2022-07-29T08:54:57;21.20;99.90
38902;DHT22;24661;53.566;9.910;2022-07-29T08:57:23;21.40;99.90
38902;DHT22;24661;53.566;9.910;2022-07-29T08:59:50;21.50;99.90
38902;DHT22;24661;53.566;9.910;2022-07-29T09:02:22;21.60;99.90
38902;DHT22;24661;53.566;9.910;2022-07-29T09:04:48;21.60;99.90
38902;DHT22;24661;53.566;9.910;2022-07-29T09:07:16;21.90;99.90
38902;DHT22;24661;53.566;9.910;2022-07-29T09:09:43;22.00;99.90
38902;DHT22;24661;53.566;9.910;2022-07-29T09:12:09;22.10;99.90
38902;DHT22;24661;53.566;9.910;2022-07-29T09:14:40;22.20;99.90
38902;DHT22;24661;53.566;9.910;2022-07-29T09:17:06;22.10;99.90
38902;DHT22;24661;53.566;9.910;2022-07-29T09:19:34;22.10;99.90
38902;DHT22;24661;53.566;9.910;2022-07-29T09:22:02;22.30;99.90
38902;DHT22;24661;53.566;9.910;2022-07-29T09:24:38;22.30;99.90
38902;DHT22;24661;53.566;9.910;2022-07-29T09:27:17;22.70;99.90
38902;DHT22;24661;53.566;9.910;2022-07-29T09:29:44;22.60;99.90
38902;DHT22;24661;53.566;9.910;2022-07-29T09:32:10;22.70;99.90
38902;DHT22;24661;53.566;9.910;2022-07-29T09:34:36;22.80;99.90
38902;DHT22;24661;53.566;9.910;2022-07-29T09:37:02;22.80;99.90
38902;DHT22;24661;53.566;9.910;2022-07-29T09:39:32;22.80;99.90
38902;DHT22;24661;53.566;9.910;2022-07-29T09:42:00;22.90;99.90
38902;DHT22;24661;53.566;9.910;2022-07-29T09:44:26;22.90;99.90
38902;DHT22;24661;53.566;9.910;2022-07-29T09:47:02;23.00;99.90
38902;DHT22;24661;53.566;9.910;2022-07-29T09:49:36;23.00;99.90
38902;DHT22;24661;53.566;9.910;2022-07-29T09:52:15;23.00;99.90
38902;DHT22;24661;53.566;9.910;2022-07-29T09:54:40;23.00;99.90
38902;DHT22;24661;53.566;9.910;2022-07-29T09:57:08;23.20;99.90
38902;DHT22;24661;53.566;9.910;2022-07-29T09:59:38;23.30;99.90
38902;DHT22;24661;53.566;9.910;2022-07-29T10:02:14;23.40;99.90
38902;DHT22;24661;53.566;9.910;2022-07-29T10:04:41;23.50;99.90
38902;DHT22;24661;53.566;9.910;2022-07-29T10:07:07;23.40;99.90
38902;DHT22;24661;53.566;9.910;2022-07-29T10:09:34;23.40;99.90
38902;DHT22;24661;53.566;9.910;2022-07-29T10:12:04;23.40;99.90
38902;DHT22;24661;53.566;9.910;2022-07-29T10:14:33;23.40;99.90
38902;DHT22;24661;53.566;9.910;2022-07-29T10:17:00;23.50;99.90
38902;DHT22;24661;53.566;9.910;2022-07-29T10:19:31;23.50;99.90
38902;DHT22;24661;53.566;9.910;2022-07-29T10:21:58;23.50;99.90
38902;DHT22;24661;53.566;9.910;2022-07-29T10:24:28;23.40;99.90
38902;DHT22;24661;53.566;9.910;2022-07-29T10:26:59;23.40;99.90
38902;DHT22;24661;53.566;9.910;2022-07-29T10:29:26;23.30;99.90
38902;DHT22;24661;53.566;9.910;2022-07-29T10:32:30;23.20;99.90
38902;DHT22;24661;53.566;9.910;2022-07-29T10:35:31;23.20;99.90
38902;DHT22;24661;53.566;9.910;2022-07-29T10:38:15;23.20;99.90
38902;DHT22;24661;53.566;9.910;2022-07-29T10:41:00;23.30;99.90
38902;DHT22;24661;53.566;9.910;2022-07-29T10:43:47;23.30;99.90
38902;DHT22;24661;53.566;9.910;2022-07-29T10:46:13;23.30;99.90
38902;DHT22;24661;53.566;9.910;2022-07-29T10:49:09;23.30;99.90
38902;DHT22;24661;53.566;9.910;2022-07-29T10:51:50;23.30;99.90
38902;DHT22;24661;53.566;9.910;2022-07-29T10:54:18;23.40;99.90
38902;DHT22;24661;53.566;9.910;2022-07-29T10:56:45;23.40;99.90
38902;DHT22;24661;53.566;9.910;2022-07-29T11:01:45;23.40;99.90
38902;DHT22;24661;53.566;9.910;2022-07-29T11:04:11;23.70;99.90
38902;DHT22;24661;53.566;9.910;2022-07-29T11:09:30;24.20;99.90
38902;DHT22;24661;53.566;9.910;2022-07-29T11:11:57;24.40;99.90
38902;DHT22;24661;53.566;9.910;2022-07-29T11:14:55;24.60;99.90
38902;DHT22;24661;53.566;9.910;2022-07-29T11:17:21;25.00;99.90
38902;DHT22;24661;53.566;9.910;2022-07-29T11:19:47;25.00;99.90
38902;DHT22;24661;53.566;9.910;2022-07-29T11:22:32;25.40;99.90
38902;DHT22;24661;53.566;9.910;2022-07-29T11:25:17;25.60;99.90
38902;DHT22;24661;53.566;9.910;2022-07-29T11:27:46;25.80;99.90
38902;DHT22;24661;53.566;9.910;2022-07-29T11:30:12;25.70;99.90
38902;DHT22;24661;53.566;9.910;2022-07-29T11:32:40;25.60;99.90
38902;DHT22;24661;53.566;9.910;2022-07-29T11:35:20;25.40;99.90
38902;DHT22;24661;53.566;9.910;2022-07-29T11:38:22;25.30;99.90
38902;DHT22;24661;53.566;9.910;2022-07-29T11:40:33;25.30;99.90
38902;DHT22;24661;53.566;9.910;2022-07-29T11:42:58;25.20;99.90
38902;DHT22;24661;53.566;9.910;2022-07-29T11:45:25;25.00;99.90
38902;DHT22;24661;53.566;9.910;2022-07-29T11:47:56;25.10;99.90
38902;DHT22;24661;53.566;9.910;2022-07-29T11:50:34;25.20;99.90
38902;DHT22;24661;53.566;9.910;2022-07-29T11:53:02;25.30;99.90
38902;DHT22;24661;53.566;9.910;2022-07-29T11:55:28;25.30;99.90
38902;DHT22;24661;53.566;9.910;2022-07-29T11:57:57;25.50;99.90
38902;DHT22;24661;53.566;9.910;2022-07-29T12:00:42;25.90;99.90
38902;DHT22;24661;53.566;9.910;2022-07-29T12:03:24;26.10;99.90
38902;DHT22;24661;53.566;9.910;2022-07-29T12:05:50;26.10;99.90
38902;DHT22;24661;53.566;9.910;2022-07-29T12:08:21;26.20;99.90
38902;DHT22;24661;53.566;9.910;2022-07-29T12:10:49;26.50;99.90
38902;DHT22;24661;53.566;9.910;2022-07-29T12:13:18;26.50;99.90
38902;DHT22;24661;53.566;9.910;2022-07-29T12:15:55;26.50;99.90
38902;DHT22;24661;53.566;9.910;2022-07-29T12:18:22;26.50;99.90
38902;DHT22;24661;53.566;9.910;2022-07-29T12:20:49;26.70;99.90
38902;DHT22;24661;53.566;9.910;2022-07-29T12:23:21;26.60;99.90
38902;DHT22;24661;53.566;9.910;2022-07-29T12:25:47;25.00;99.90
38902;DHT22;24661;53.566;9.910;2022-07-29T12:28:14;26.50;99.90
38902;DHT22;24661;53.566;9.910;2022-07-29T12:30:49;26.10;99.90
38902;DHT22;24661;53.566;9.910;2022-07-29T12:35:50;26.10;99.90
38902;DHT22;24661;53.566;9.910;2022-07-29T12:38:17;25.90;99.90
38902;DHT22;24661;53.566;9.910;2022-07-29T12:40:44;25.70;99.90
38902;DHT22;24661;53.566;9.910;2022-07-29T12:43:15;25.90;99.90
38902;DHT22;24661;53.566;9.910;2022-07-29T12:45:44;25.90;99.90
38902;DHT22;24661;53.566;9.910;2022-07-29T12:48:10;26.00;99.90
38902;DHT22;24661;53.566;9.910;2022-07-29T12:50:53;26.10;99.90
38902;DHT22;24661;53.566;9.910;2022-07-29T12:53:19;26.10;99.90
38902;DHT22;24661;53.566;9.910;2022-07-29T12:55:49;26.00;99.90
38902;DHT22;24661;53.566;9.910;2022-07-29T12:58:35;25.90;99.90
38902;DHT22;24661;53.566;9.910;2022-07-29T13:01:11;26.00;99.90
38902;DHT22;24661;53.566;9.910;2022-07-29T13:03:56;25.90;99.90
38902;DHT22;24661;53.566;9.910;2022-07-29T13:06:44;26.00;99.90
38902;DHT22;24661;53.566;9.910;2022-07-29T13:09:16;26.10;99.90
38902;DHT22;24661;53.566;9.910;2022-07-29T13:11:47;26.30;99.90
38902;DHT22;24661;53.566;9.910;2022-07-29T13:14:36;26.20;99.90
38902;DHT22;24661;53.566;9.910;2022-07-29T13:19:47;26.20;99.90
38902;DHT22;24661;53.566;9.910;2022-07-29T13:22:22;26.30;99.90
38902;DHT22;24661;53.566;9.910;2022-07-29T13:24:49;26.40;99.90
38902;DHT22;24661;53.566;9.910;2022-07-29T13:27:16;26.40;99.90
38902;DHT22;24661;53.566;9.910;2022-07-29T13:29:42;26.40;99.90
38902;DHT22;24661;53.566;9.910;2022-07-29T13:32:08;26.40;99.90
38902;DHT22;24661;53.566;9.910;2022-07-29T13:34:33;26.40;99.90
38902;DHT22;24661;53.566;9.910;2022-07-29T13:36:59;26.30;99.90
38902;DHT22;24661;53.566;9.910;2022-07-29T13:39:24;26.50;99.90
38902;DHT22;24661;53.566;9.910;2022-07-29T13:41:51;26.50;99.90
38902;DHT22;24661;53.566;9.910;2022-07-29T13:44:17;26.50;99.90
38902;DHT22;24661;53.566;9.910;2022-07-29T13:46:42;26.70;99.90
38902;DHT22;24661;53.566;9.910;2022-07-29T13:49:08;26.60;99.90
38902;DHT22;24661;53.566;9.910;2022-07-29T13:51:33;26.60;99.90
38902;DHT22;24661;53.566;9.910;2022-07-29T13:53:59;26.40;99.90
38902;DHT22;24661;53.566;9.910;2022-07-29T13:56:25;26.40;99.90
38902;DHT22;24661;53.566;9.910;2022-07-29T13:58:51;26.60;99.90
38902;DHT22;24661;53.566;9.910;2022-07-29T14:01:17;26.70;99.90
38902;DHT22;24661;53.566;9.910;2022-07-29T14:03:42;26.50;99.90
38902;DHT22;24661;53.566;9.910;2022-07-29T14:06:08;26.40;99.90
38902;DHT22;24661;53.566;9.910;2022-07-29T14:08:34;26.10;99.90
38902;DHT22;24661;53.566;9.910;2022-07-29T14:11:00;26.10;99.90
38902;DHT22;24661;53.566;9.910;2022-07-29T14:13:25;26.00;99.90
38902;DHT22;24661;53.566;9.910;2022-07-29T14:15:52;25.90;99.90
38902;DHT22;24661;53.566;9.910;2022-07-29T14:18:17;25.70;99.90
38902;DHT22;24661;53.566;9.910;2022-07-29T14:20:43;25.60;99.90
38902;DHT22;24661;53.566;9.910;2022-07-29T14:23:08;25.40;99.90
38902;DHT22;24661;53.566;9.910;2022-07-29T14:25:34;25.30;99.90
38902;DHT22;24661;53.566;9.910;2022-07-29T14:27:59;25.40;99.90
38902;DHT22;24661;53.566;9.910;2022-07-29T14:30:25;25.10;99.90
38902;DHT22;24661;53.566;9.910;2022-07-29T14:32:51;25.10;99.90
38902;DHT22;24661;53.566;9.910;2022-07-29T14:35:16;25.00;99.90
38902;DHT22;24661;53.566;9.910;2022-07-29T14:37:42;24.90;99.90
38902;DHT22;24661;53.566;9.910;2022-07-29T14:40:09;24.80;99.90
38902;DHT22;24661;53.566;9.910;2022-07-29T14:42:35;24.80;99.90
38902;DHT22;24661;53.566;9.910;2022-07-29T14:45:02;24.90;99.90
38902;DHT22;24661;53.566;9.910;2022-07-29T14:47:29;24.80;99.90
38902;DHT22;24661;53.566;9.910;2022-07-29T14:49:55;25.00;99.90
38902;DHT22;24661;53.566;9.910;2022-07-29T14:52:20;25.10;99.90
38902;DHT22;24661;53.566;9.910;2022-07-29T14:54:46;25.10;99.90
38902;DHT22;24661;53.566;9.910;2022-07-29T14:57:11;25.20;99.90
38902;DHT22;24661;53.566;9.910;2022-07-29T14:59:37;25.10;99.90
38902;DHT22;24661;53.566;9.910;2022-07-29T15:02:02;25.00;99.90
38902;DHT22;24661;53.566;9.910;2022-07-29T15:04:28;24.70;99.90
38902;DHT22;24661;53.566;9.910;2022-07-29T15:06:54;24.60;99.90
38902;DHT22;24661;53.566;9.910;2022-07-29T15:09:19;24.60;99.90
38902;DHT22;24661;53.566;9.910;2022-07-29T15:11:45;24.40;99.90
38902;DHT22;24661;53.566;9.910;2022-07-29T15:14:10;24.40;99.90
38902;DHT22;24661;53.566;9.910;2022-07-29T15:16:37;24.20;99.90
38902;DHT22;24661;53.566;9.910;2022-07-29T15:19:04;24.30;99.90
38902;DHT22;24661;53.566;9.910;2022-07-29T15:21:29;24.00;99.90
38902;DHT22;24661;53.566;9.910;2022-07-29T15:23:55;23.90;99.90
38902;DHT22;24661;53.566;9.910;2022-07-29T15:26:20;23.80;99.90
38902;DHT22;24661;53.566;9.910;2022-07-29T15:28:46;23.80;99.90
38902;DHT22;24661;53.566;9.910;2022-07-29T15:31:12;23.80;99.90
38902;DHT22;24661;53.566;9.910;2022-07-29T15:33:37;23.80;99.90
38902;DHT22;24661;53.566;9.910;2022-07-29T15:36:03;23.80;99.90
38902;DHT22;24661;53.566;9.910;2022-07-29T15:38:30;23.80;99.90
38902;DHT22;24661;53.566;9.910;2022-07-29T15:40:56;23.80;99.90
38902;DHT22;24661;53.566;9.910;2022-07-29T15:43:23;23.80;99.90
38902;DHT22;24661;53.566;9.910;2022-07-29T15:45:49;23.70;99.90
38902;DHT22;24661;53.566;9.910;2022-07-29T15:48:33;23.70;99.90
38902;DHT22;24661;53.566;9.910;2022-07-29T15:51:02;23.80;99.90
38902;DHT22;24661;53.566;9.910;2022-07-29T15:53:28;23.90;99.90